Time;durP1;ratioP1;P1;durP2;ratioP2;P2;SDS_P1;SDS_P2;PMS_P1;PMS_P2;Temp;Humidity;BMP_temperature;BMP_pressure;BME280_temperature;BME280_humidity;BME280_pressure;Samples;Min_cycle;Max_cycle;Signal;HPM_P1;HPM_P2
2023/10/24 00:01:03;;;;;;;6.10;2.80;;;;;;;13.87;70.64;99147.53;79607;1295;3016172;-67
2023/10/24 00:03:31;;;;;;;6.00;2.60;;;;;;;13.86;70.50;99148.08;78408;1298;3027421;-66
2023/10/24 00:05:58;;;;;;;6.30;2.40;;;;;;;13.70;70.81;99150.36;79686;1295;3018411;-68
2023/10/24 00:08:24;;;;;;;5.40;3.40;;;;;;;13.62;70.80;99150.30;79567;1295;3011772;-68
2023/10/24 00:11:02;;;;;;;6.40;3.20;;;;;;;13.35;71.96;99147.69;78424;1299;3025976;-66
2023/10/24 00:13:31;;;;;;;6.90;3.20;;;;;;;13.16;73.16;99139.92;78538;1298;3053921;-66
2023/10/24 00:15:58;;;;;;;5.50;3.00;;;;;;;13.00;73.99;99139.38;79521;1297;3019699;-66
2023/10/24 00:18:25;;;;;;;5.40;3.50;;;;;;;12.89;74.92;99141.96;79608;1300;3011566;-67
2023/10/24 00:20:53;;;;;;;5.80;3.30;;;;;;;12.83;74.96;99134.83;78512;1298;3026602;-66
2023/10/24 00:23:19;;;;;;;4.40;2.30;;;;;;;12.73;76.71;99138.05;79624;1297;3012821;-67
2023/10/24 00:25:46;;;;;;;8.30;3.00;;;;;;;13.34;74.99;99137.19;79617;1298;3012020;-68
2023/10/24 00:28:14;;;;;;;7.90;2.70;;;;;;;13.92;72.78;99128.06;78413;1295;3025434;-67
2023/10/24 00:30:40;;;;;;;6.60;3.10;;;;;;;13.83;71.97;99138.45;79634;1298;3013367;-66
2023/10/24 00:33:07;;;;;;;5.70;3.30;;;;;;;13.60;72.87;99136.95;79516;1298;3012987;-67
2023/10/24 00:35:34;;;;;;;8.70;3.50;;;;;;;13.50;72.55;99143.88;78329;1297;3025957;-68
2023/10/24 00:38:01;;;;;;;6.70;3.60;;;;;;;13.29;73.25;99136.14;79429;1298;3013551;-67
2023/10/24 00:40:27;;;;;;;9.80;4.10;;;;;;;13.07;73.92;99135.84;79624;1295;3011683;-66
2023/10/24 00:43:01;;;;;;;11.20;5.20;;;;;;;12.91;74.60;99135.85;78325;1295;3026617;-66
2023/10/24 00:45:27;;;;;;;12.30;5.10;;;;;;;12.78;75.19;99133.64;79584;1296;3011607;-67
2023/10/24 00:47:55;;;;;;;14.30;5.90;;;;;;;12.65;75.80;99137.27;78387;1299;3052791;-65
2023/10/24 00:50:22;;;;;;;11.50;5.80;;;;;;;12.64;75.36;99131.51;79567;1301;3013530;-66
2023/10/24 00:52:48;;;;;;;7.90;4.40;;;;;;;12.60;76.21;99133.59;79409;1293;3011738;-66
2023/10/24 00:55:16;;;;;;;13.60;5.70;;;;;;;13.20;74.51;99132.06;78301;1294;3026903;-67
2023/10/24 00:57:43;;;;;;;11.50;5.60;;;;;;;13.55;72.56;99136.76;79506;1295;3013872;-68
2023/10/24 01:00:10;;;;;;;14.60;6.70;;;;;;;13.63;71.97;99138.83;79440;1295;3011983;-67
2023/10/24 01:02:38;;;;;;;15.10;6.50;;;;;;;13.39;72.30;99135.02;78309;1295;3053428;-69
2023/10/24 01:05:05;;;;;;;14.60;6.30;;;;;;;13.27;72.62;99140.52;79571;1298;3013302;-67
2023/10/24 01:07:32;;;;;;;13.00;5.60;;;;;;;12.96;73.55;99147.77;79499;1295;3011741;-66
2023/10/24 01:10:00;;;;;;;13.40;6.80;;;;;;;12.79;74.32;99137.12;78287;1294;3055669;-66
2023/10/24 01:12:26;;;;;;;15.00;6.50;;;;;;;12.69;74.54;99139.27;79667;1297;3013438;-67
2023/10/24 01:14:53;;;;;;;13.30;6.40;;;;;;;12.63;74.51;99144.59;79419;1299;3011907;-66
2023/10/24 01:17:20;;;;;;;13.70;6.20;;;;;;;12.50;75.57;99148.38;78266;1300;3027954;-66
2023/10/24 01:19:47;;;;;;;13.40;6.70;;;;;;;12.42;75.63;99151.77;79683;1295;3012949;-65
2023/10/24 01:22:13;;;;;;;14.20;6.00;;;;;;;12.37;75.99;99160.55;79592;1295;3011502;-66
2023/10/24 01:24:41;;;;;;;12.70;6.00;;;;;;;12.86;74.87;99167.48;78392;1297;3027607;-67
2023/10/24 01:27:08;;;;;;;12.50;5.80;;;;;;;13.15;73.30;99172.16;79658;1297;3012967;-67
2023/10/24 01:29:35;;;;;;;12.50;6.20;;;;;;;13.23;73.23;99166.87;79569;1295;3012743;-64
2023/10/24 01:32:03;;;;;;;11.60;6.20;;;;;;;13.19;72.52;99164.51;78490;1297;3026027;-66
2023/10/24 01:34:30;;;;;;;17.90;6.40;;;;;;;12.94;73.65;99165.35;79668;1295;3013715;-68
2023/10/24 01:36:56;;;;;;;18.20;7.60;;;;;;;12.77;73.96;99159.71;79612;1295;3011549;-66
2023/10/24 01:39:25;;;;;;;17.50;7.30;;;;;;;12.51;75.32;99162.74;78414;1297;3028334;-67
2023/10/24 01:41:51;;;;;;;17.50;7.20;;;;;;;12.31;76.53;99165.41;79518;1294;3013589;-68
2023/10/24 01:44:17;;;;;;;15.40;7.20;;;;;;;12.24;76.43;99166.95;79564;1296;3011898;-67
2023/10/24 01:46:45;;;;;;;15.00;5.90;;;;;;;12.12;77.19;99172.66;78354;1298;3026195;-67
2023/10/24 01:49:12;;;;;;;19.30;6.00;;;;;;;12.74;76.18;99163.08;79523;1298;3013503;-69
2023/10/24 01:51:39;;;;;;;13.90;6.50;;;;;;;13.19;73.53;99169.59;79660;1296;3012988;-69
2023/10/24 01:54:07;;;;;;;11.60;6.60;;;;;;;13.19;73.18;99172.77;78441;1294;3057218;-68
2023/10/24 01:56:33;;;;;;;17.80;7.10;;;;;;;13.14;72.92;99171.91;79586;1295;3013554;-68
2023/10/24 01:59:00;;;;;;;13.40;7.20;;;;;;;12.86;73.93;99171.34;79496;1297;3011457;-66
2023/10/24 02:01:28;;;;;;;16.40;7.00;;;;;;;12.74;74.26;99173.66;78278;1297;3027099;-68
2023/10/24 02:03:55;;;;;;;15.20;7.20;;;;;;;12.62;74.45;99175.06;79623;1298;3013188;-66
2023/10/24 02:06:22;;;;;;;16.90;8.10;;;;;;;12.47;75.28;99174.04;79555;1297;3011468;-65
2023/10/24 02:08:50;;;;;;;14.30;7.20;;;;;;;12.31;76.34;99178.77;78371;1295;3056977;-68
2023/10/24 02:11:16;;;;;;;22.80;8.00;;;;;;;12.27;76.09;99178.81;79510;1294;3013294;-68
2023/10/24 02:13:43;;;;;;;17.40;6.50;;;;;;;12.21;76.85;99183.16;79541;1295;3011567;-65
2023/10/24 02:16:10;;;;;;;17.60;6.90;;;;;;;12.61;76.27;99181.95;78382;1297;3026913;-68
2023/10/24 02:18:37;;;;;;;12.20;6.30;;;;;;;13.23;74.25;99185.10;79716;1297;3011925;-67
2023/10/24 02:21:07;;;;;;;15.80;7.10;;;;;;;13.27;73.14;99184.68;79549;1294;3011577;-67
2023/10/24 02:23:37;;;;;;;16.70;6.60;;;;;;;13.13;73.12;99185.85;78331;1297;3056419;-69
2023/10/24 02:26:04;;;;;;;13.20;7.10;;;;;;;12.91;74.00;99185.61;79740;1295;3012740;-68
2023/10/24 02:28:31;;;;;;;15.00;8.00;;;;;;;12.64;74.92;99190.71;79609;1294;3011680;-65
2023/10/24 02:31:02;;;;;;;18.40;8.30;;;;;;;12.51;74.98;99183.29;78389;1297;3053635;-67
2023/10/24 02:33:29;;;;;;;21.80;8.90;;;;;;;12.41;74.87;99180.49;79657;1297;3011788;-65
2023/10/24 02:36:08;;;;;;;25.10;10.90;;;;;;;12.21;76.07;99188.77;78272;1296;3068522;-66
2023/10/24 02:38:36;;;;;;;28.50;11.40;;;;;;;12.01;77.44;99187.03;78366;1294;3051915;-66
2023/10/24 02:41:03;;;;;;;22.70;8.60;;;;;;;11.86;78.36;99185.94;79734;1293;3013362;-68
2023/10/24 02:43:30;;;;;;;27.60;10.40;;;;;;;12.40;77.34;99188.12;79606;1298;3012501;-66
2023/10/24 02:46:02;;;;;;;22.50;10.80;;;;;;;12.86;74.65;99181.70;78291;1297;3026055;-69
2023/10/24 02:48:28;;;;;;;22.80;11.10;;;;;;;12.83;74.50;99175.09;79420;1294;3013079;-67
2023/10/24 02:50:57;;;;;;;24.90;12.20;;;;;;;12.78;74.68;99175.14;78356;1299;3053630;-67
2023/10/24 02:53:24;;;;;;;26.60;11.40;;;;;;;12.59;74.95;99175.98;79551;1295;3013206;-68
2023/10/24 02:55:51;;;;;;;28.60;11.00;;;;;;;12.29;76.13;99182.71;79619;1296;3013475;-67
2023/10/24 02:58:18;;;;;;;28.40;11.50;;;;;;;12.03;77.54;99177.17;78408;1294;3026538;-66
2023/10/24 03:00:45;;;;;;;27.30;10.40;;;;;;;11.95;78.40;99174.80;79693;1297;3013721;-68
2023/10/24 03:03:12;;;;;;;19.40;10.60;;;;;;;11.84;78.76;99179.89;79669;1295;3011892;-65
2023/10/24 03:05:40;;;;;;;23.40;7.60;;;;;;;11.77;79.59;99180.58;78300;1295;3026492;-69
2023/10/24 03:08:07;;;;;;;22.30;8.50;;;;;;;12.40;78.11;99170.52;79457;1299;3013219;-69
2023/10/24 03:10:40;;;;;;;22.10;8.80;;;;;;;12.85;75.51;99165.27;79634;1294;3011710;-69
2023/10/24 03:13:07;;;;;;;26.90;9.70;;;;;;;12.92;75.26;99162.84;78488;1295;3047667;-68
2023/10/24 03:15:35;;;;;;;20.00;9.70;;;;;;;12.73;75.46;99164.98;79485;1294;3012992;-68
2023/10/24 03:18:02;;;;;;;19.70;10.10;;;;;;;12.56;76.00;99165.64;79584;1295;3011586;-65
2023/10/24 03:20:30;;;;;;;21.50;10.50;;;;;;;12.26;77.24;99169.95;78251;1300;3052751;-67
2023/10/24 03:22:56;;;;;;;23.60;10.10;;;;;;;12.25;77.31;99167.77;79668;1294;3019005;-66
2023/10/24 03:25:26;;;;;;;23.90;10.50;;;;;;;12.13;77.96;99174.09;79622;1297;3011335;-67
2023/10/24 03:27:54;;;;;;;20.50;11.20;;;;;;;11.96;78.87;99176.81;78482;1294;3049203;-67
2023/10/24 03:30:21;;;;;;;19.40;8.30;;;;;;;12.00;78.30;99182.19;79846;1294;3013723;-68
2023/10/24 03:32:48;;;;;;;20.10;8.40;;;;;;;12.66;76.88;99186.52;79759;1298;3011339;-66
2023/10/24 03:35:15;;;;;;;17.60;8.80;;;;;;;13.20;73.67;99189.42;78331;1297;3025966;-67
2023/10/24 03:37:42;;;;;;;20.30;8.30;;;;;;;12.90;74.34;99187.41;79633;1296;3018455;-68
2023/10/24 03:40:09;;;;;;;21.40;9.00;;;;;;;12.76;73.92;99188.80;79567;1294;3011577;-68
2023/10/24 03:42:37;;;;;;;15.90;8.60;;;;;;;12.38;74.91;99187.50;78467;1294;3048051;-65
2023/10/24 03:45:05;;;;;;;14.20;7.60;;;;;;;12.09;75.51;99190.83;79505;1295;3013153;-66
2023/10/24 03:47:33;;;;;;;17.10;8.40;;;;;;;11.78;76.99;99188.58;79622;1294;3011649;-66
2023/10/24 03:50:00;;;;;;;18.70;8.90;;;;;;;11.62;77.71;99186.88;78389;1300;3053011;-66
2023/10/24 03:52:27;;;;;;;19.00;8.80;;;;;;;11.47;78.54;99186.86;79790;1297;3013390;-66
2023/10/24 03:54:54;;;;;;;13.90;6.40;;;;;;;11.41;78.87;99194.32;79627;1297;3011601;-68
2023/10/24 03:57:21;;;;;;;14.00;6.80;;;;;;;11.88;78.90;99197.23;78274;1297;3027586;-67
2023/10/24 03:59:48;;;;;;;12.60;6.50;;;;;;;12.25;77.49;99198.95;79615;1297;3018568;-67
2023/10/24 04:02:14;;;;;;;14.40;6.80;;;;;;;12.43;75.73;99204.23;79521;1297;3011655;-67
2023/10/24 04:04:42;;;;;;;12.90;6.30;;;;;;;12.17;75.96;99201.84;78418;1296;3026563;-68
2023/10/24 04:07:09;;;;;;;13.20;6.80;;;;;;;12.00;75.90;99202.30;79670;1294;3013425;-67
2023/10/24 04:09:36;;;;;;;8.50;5.50;;;;;;;11.64;77.50;99206.59;79588;1294;3011623;-66
2023/10/24 04:12:04;;;;;;;15.90;6.00;;;;;;;11.38;78.10;99211.85;78390;1294;3026453;-65
2023/10/24 04:14:31;;;;;;;12.90;6.40;;;;;;;11.25;78.48;99207.98;79601;1297;3013400;-66
2023/10/24 04:16:57;;;;;;;10.30;5.30;;;;;;;11.01;80.27;99207.69;79670;1295;3011624;-69
2023/10/24 04:19:25;;;;;;;12.20;6.40;;;;;;;11.48;80.40;99209.77;78475;1297;3052590;-66
2023/10/24 04:21:51;;;;;;;19.00;6.40;;;;;;;11.85;78.45;99213.02;79657;1297;3012932;-69
2023/10/24 04:24:18;;;;;;;15.10;6.90;;;;;;;11.91;78.20;99211.71;79569;1297;3013310;-68
2023/10/24 04:26:45;;;;;;;14.20;7.60;;;;;;;11.79;78.23;99212.39;78542;1297;3029582;-68
2023/10/24 04:29:12;;;;;;;18.10;8.30;;;;;;;11.59;78.99;99216.73;79699;1297;3018377;-68
2023/10/24 04:31:39;;;;;;;16.00;8.40;;;;;;;11.35;79.96;99223.30;79649;1297;3011644;-70
2023/10/24 04:34:07;;;;;;;16.50;10.20;;;;;;;11.27;79.97;99228.88;78379;1297;3028733;-68
2023/10/24 04:36:33;;;;;;;18.10;9.30;;;;;;;11.11;80.56;99232.23;79653;1294;3013361;-68
2023/10/24 04:38:59;;;;;;;15.00;7.20;;;;;;;11.02;81.27;99229.48;79746;1297;3013694;-70
2023/10/24 04:41:27;;;;;;;17.20;7.80;;;;;;;11.41;81.40;99234.27;78327;1295;3026493;-69
2023/10/24 04:43:54;;;;;;;15.20;7.70;;;;;;;12.00;78.84;99235.89;79630;1295;3013350;-67
2023/10/24 04:46:20;;;;;;;14.30;9.30;;;;;;;11.85;78.49;99235.27;79707;1295;3011604;-68
2023/10/24 04:48:48;;;;;;;15.40;8.80;;;;;;;11.62;79.44;99241.62;78330;1297;3025447;-70
2023/10/24 04:51:15;;;;;;;17.40;9.50;;;;;;;11.46;79.90;99239.73;79659;1297;3018788;-67
2023/10/24 04:53:41;;;;;;;17.00;9.30;;;;;;;11.24;81.41;99242.75;79682;1294;3011488;-69
2023/10/24 04:56:09;;;;;;;16.10;9.20;;;;;;;11.11;82.06;99254.13;78270;1295;3026312;-65
2023/10/24 04:58:36;;;;;;;16.10;7.60;;;;;;;11.12;82.15;99256.17;79789;1294;3013178;-66
2023/10/24 05:01:03;;;;;;;15.80;8.30;;;;;;;11.58;81.28;99254.66;79569;1297;3011581;-70
2023/10/24 05:03:33;;;;;;;11.30;7.50;;;;;;;11.88;79.61;99260.94;78451;1294;3026391;-70
2023/10/24 05:05:59;;;;;;;16.70;7.80;;;;;;;11.91;78.75;99254.75;79578;1295;3011427;-68
2023/10/24 05:08:26;;;;;;;14.30;8.30;;;;;;;11.83;79.00;99255.80;79607;1294;3013670;-66
2023/10/24 05:10:54;;;;;;;20.50;8.70;;;;;;;11.64;79.55;99256.91;78449;1295;3049295;-66
2023/10/24 05:13:21;;;;;;;16.80;8.10;;;;;;;11.34;81.13;99270.68;79721;1294;3013768;-68
2023/10/24 05:15:47;;;;;;;16.40;8.00;;;;;;;11.22;82.00;99267.79;79541;1297;3011872;-70
2023/10/24 05:18:15;;;;;;;11.80;6.00;;;;;;;11.14;82.68;99271.83;78497;1294;3025729;-66
2023/10/24 05:20:42;;;;;;;12.20;6.70;;;;;;;11.65;81.44;99269.67;79515;1297;3013548;-68
2023/10/24 05:23:08;;;;;;;11.90;6.10;;;;;;;12.16;79.25;99272.86;79503;1297;3013985;-70
2023/10/24 05:25:36;;;;;;;18.90;7.70;;;;;;;12.18;78.38;99282.52;78273;1298;3028656;-68
2023/10/24 05:28:03;;;;;;;14.90;7.90;;;;;;;11.94;78.95;99279.44;79559;1295;3018700;-70
2023/10/24 05:30:29;;;;;;;12.20;6.80;;;;;;;11.86;79.50;99285.11;79642;1294;3011882;-70
2023/10/24 05:32:58;;;;;;;14.60;7.70;;;;;;;11.64;80.09;99280.59;78472;1297;3026516;-66
2023/10/24 05:35:25;;;;;;;13.70;7.80;;;;;;;11.53;80.62;99283.23;79995;1297;3013118;-66
2023/10/24 05:37:51;;;;;;;10.70;5.90;;;;;;;11.47;81.28;99287.88;79893;1294;3011680;-71
2023/10/24 05:40:19;;;;;;;11.60;6.20;;;;;;;12.05;79.64;99288.67;78627;1294;3050261;-67
2023/10/24 05:42:46;;;;;;;12.20;5.60;;;;;;;12.36;78.01;99287.11;79626;1294;3013681;-68
2023/10/24 05:45:12;;;;;;;14.60;6.40;;;;;;;12.32;78.04;99294.55;79571;1297;3012805;-69
2023/10/24 05:47:40;;;;;;;13.60;6.40;;;;;;;12.25;77.78;99291.35;78544;1297;3027803;-71
2023/10/24 05:50:07;;;;;;;11.00;6.20;;;;;;;12.04;78.76;99297.77;79786;1295;3013517;-66
2023/10/24 05:52:34;;;;;;;10.90;5.70;;;;;;;11.86;79.41;99300.52;79620;1297;3012813;-68
2023/10/24 05:55:02;;;;;;;16.10;6.00;;;;;;;11.76;79.60;99294.51;78515;1294;3026714;-68
2023/10/24 05:57:29;;;;;;;13.00;5.20;;;;;;;11.72;80.09;99297.77;79765;1294;3013571;-69
2023/10/24 05:59:55;;;;;;;12.90;5.20;;;;;;;11.63;80.76;99297.52;79715;1297;3011861;-68
2023/10/24 06:02:23;;;;;;;10.40;5.40;;;;;;;12.30;78.87;99306.11;78584;1297;3026325;-68
2023/10/24 06:04:50;;;;;;;13.40;5.20;;;;;;;12.73;76.76;99307.12;79767;1297;3018761;-66
2023/10/24 06:07:16;;;;;;;11.40;5.10;;;;;;;12.93;75.72;99308.12;79625;1295;3011517;-67
2023/10/24 06:09:44;;;;;;;9.20;5.10;;;;;;;12.79;75.70;99307.56;78450;1297;3028215;-68
2023/10/24 06:12:11;;;;;;;11.50;4.90;;;;;;;12.67;75.88;99312.81;79832;1300;3013091;-69
2023/10/24 06:14:37;;;;;;;11.10;5.40;;;;;;;12.39;76.41;99318.80;79728;1295;3013502;-68
2023/10/24 06:17:05;;;;;;;10.40;5.40;;;;;;;12.20;77.62;99312.95;78397;1296;3026286;-65
2023/10/24 06:19:33;;;;;;;11.00;5.30;;;;;;;12.20;77.64;99318.55;79777;1297;3012511;-70
2023/10/24 06:21:59;;;;;;;10.70;5.40;;;;;;;12.11;78.03;99317.99;79766;1294;3011835;-71
2023/10/24 06:24:27;;;;;;;6.70;4.10;;;;;;;12.01;78.72;99322.84;78582;1295;3048943;-68
2023/10/24 06:26:54;;;;;;;15.10;5.00;;;;;;;12.47;77.57;99326.67;79786;1297;3018912;-71
2023/10/24 06:29:20;;;;;;;8.70;5.00;;;;;;;12.99;75.52;99326.70;79610;1297;3013033;-68
2023/10/24 06:31:48;;;;;;;12.00;5.40;;;;;;;13.22;74.51;99331.70;78631;1294;3027326;-68
2023/10/24 06:34:15;;;;;;;14.20;5.40;;;;;;;13.23;74.22;99329.83;79899;1294;3018188;-68
2023/10/24 06:36:41;;;;;;;11.70;5.30;;;;;;;13.26;74.10;99328.77;79875;1294;3013216;-70
2023/10/24 06:39:10;;;;;;;12.70;5.90;;;;;;;13.07;74.41;99332.93;78742;1294;3026194;-69
2023/10/24 06:41:37;;;;;;;20.40;8.40;;;;;;;12.89;75.03;99333.58;79826;1295;3014582;-68
2023/10/24 06:44:04;;;;;;;13.50;6.60;;;;;;;12.82;75.62;99338.66;79811;1294;3011742;-67
2023/10/24 06:46:32;;;;;;;14.70;6.50;;;;;;;12.70;75.69;99344.20;78532;1297;3052651;-70
2023/10/24 06:48:58;;;;;;;11.90;6.30;;;;;;;12.73;75.84;99342.26;79650;1297;3013710;-68
2023/10/24 06:51:25;;;;;;;13.90;5.00;;;;;;;12.78;75.91;99342.58;79646;1294;3013605;-69
2023/10/24 06:53:53;;;;;;;11.20;5.50;;;;;;;13.41;74.43;99345.59;78317;1294;3028384;-63
2023/10/24 06:56:19;;;;;;;8.60;4.90;;;;;;;13.89;71.90;99343.09;79758;1294;3018708;-68
2023/10/24 06:58:46;;;;;;;12.50;5.20;;;;;;;14.00;71.06;99343.64;79532;1295;3011730;-65
2023/10/24 07:01:13;;;;;;;7.80;4.70;;;;;;;13.93;71.25;99343.80;78394;1295;3026633;-67
2023/10/24 07:03:40;;;;;;;9.90;4.50;;;;;;;13.61;71.41;99348.02;79774;1298;3013152;-67
2023/10/24 07:06:06;;;;;;;11.20;5.10;;;;;;;13.50;71.80;99343.21;79661;1295;3011660;-68
2023/10/24 07:08:34;;;;;;;10.90;4.40;;;;;;;13.30;72.13;99341.85;78383;1294;3025906;-72
2023/10/24 07:11:01;;;;;;;12.10;5.60;;;;;;;13.31;71.96;99344.79;79656;1294;3011694;-66
2023/10/24 07:13:29;;;;;;;10.30;4.50;;;;;;;13.17;72.47;99351.90;79557;1294;3013691;-70
2023/10/24 07:15:56;;;;;;;7.90;4.00;;;;;;;13.06;72.77;99349.90;78349;1297;3052277;-72
2023/10/24 07:18:23;;;;;;;11.60;4.80;;;;;;;13.01;72.91;99351.20;79683;1294;3013553;-72
2023/10/24 07:20:49;;;;;;;10.30;4.90;;;;;;;13.06;72.99;99353.64;79745;1294;3013661;-72
2023/10/24 07:23:18;;;;;;;10.90;4.50;;;;;;;13.18;72.47;99354.81;78455;1294;3026380;-72
2023/10/24 07:25:45;;;;;;;10.40;5.00;;;;;;;13.25;72.43;99354.17;79881;1297;3012863;-73
2023/10/24 07:28:11;;;;;;;7.30;4.40;;;;;;;13.29;72.07;99356.88;79436;1295;3011595;-70
2023/10/24 07:30:39;;;;;;;9.00;4.20;;;;;;;13.33;71.68;99357.43;78584;1297;3053732;-72
2023/10/24 07:33:06;;;;;;;5.70;3.70;;;;;;;13.29;70.71;99361.42;79608;1294;3011883;-70
2023/10/24 07:35:32;;;;;;;8.50;4.20;;;;;;;13.26;70.84;99360.46;79575;1297;3011898;-67
2023/10/24 07:38:00;;;;;;;6.60;3.50;;;;;;;13.30;71.14;99372.13;78188;1297;3028214;-66
2023/10/24 07:40:26;;;;;;;7.70;3.80;;;;;;;13.26;71.13;99369.55;79670;1295;3021016;-67
2023/10/24 07:42:53;;;;;;;6.00;3.50;;;;;;;13.19;71.49;99369.90;79617;1297;3012516;-66
2023/10/24 07:45:21;;;;;;;8.40;4.30;;;;;;;13.13;71.58;99366.49;78830;1297;3027043;-64
2023/10/24 07:47:47;;;;;;;5.90;3.60;;;;;;;13.06;72.20;99364.16;79805;1294;3011916;-69
2023/10/24 07:50:14;;;;;;;8.20;4.30;;;;;;;13.24;71.49;99367.08;79988;1294;3011832;-66
2023/10/24 07:52:41;;;;;;;6.30;2.90;;;;;;;13.28;71.87;99370.83;78350;1294;3028301;-64
2023/10/24 07:55:08;;;;;;;6.50;3.30;;;;;;;13.79;70.42;99373.25;79749;1293;3013394;-68
2023/10/24 07:57:35;;;;;;;7.20;3.60;;;;;;;14.31;68.15;99375.27;79585;1297;3013359;-65
2023/10/24 08:00:03;;;;;;;7.40;3.90;;;;;;;14.37;67.30;99372.73;78400;1294;3026688;-68
2023/10/24 08:02:40;;;;;;;6.40;3.10;;;;;;;14.09;67.07;99381.72;78456;1295;3068976;-67
2023/10/24 08:05:07;;;;;;;7.00;3.20;;;;;;;13.97;67.39;99379.27;79635;1294;3011518;-69
2023/10/24 08:07:34;;;;;;;6.50;3.20;;;;;;;14.02;67.14;99373.30;79594;1294;3011794;-67
2023/10/24 08:10:03;;;;;;;5.20;2.80;;;;;;;13.97;66.96;99373.33;78304;1297;3028827;-65
2023/10/24 08:12:30;;;;;;;9.10;3.80;;;;;;;13.88;67.34;99375.42;79678;1294;3011413;-66
2023/10/24 08:14:56;;;;;;;7.90;3.00;;;;;;;13.81;67.45;99372.06;79659;1297;3011686;-66
2023/10/24 08:17:24;;;;;;;5.20;3.50;;;;;;;13.85;68.03;99368.61;78477;1297;3068295;-67
2023/10/24 08:19:51;;;;;;;10.70;3.90;;;;;;;13.81;68.20;99370.30;79680;1294;3013064;-66
2023/10/24 08:22:17;;;;;;;7.90;4.00;;;;;;;13.55;68.79;99366.63;79620;1297;3012978;-69
2023/10/24 08:24:45;;;;;;;10.20;3.50;;;;;;;13.68;68.68;99366.48;78458;1294;3026193;-68
2023/10/24 08:27:12;;;;;;;8.70;3.70;;;;;;;13.69;68.59;99367.32;79956;1294;3013250;-65
2023/10/24 08:29:39;;;;;;;11.50;3.70;;;;;;;13.68;68.83;99367.39;79820;1295;3011359;-67
2023/10/24 08:32:07;;;;;;;5.80;3.50;;;;;;;13.71;68.81;99366.84;78576;1295;3068612;-68
2023/10/24 08:34:36;;;;;;;7.10;3.70;;;;;;;13.78;68.65;99368.90;79811;1295;3013872;-69
2023/10/24 08:37:05;;;;;;;7.80;4.10;;;;;;;13.63;68.69;99365.49;79202;1295;3012290;-68
2023/10/24 08:39:32;;;;;;;9.80;3.90;;;;;;;13.60;69.04;99361.79;79874;1294;3012764;-70
2023/10/24 08:41:58;;;;;;;5.20;3.50;;;;;;;13.72;69.27;99361.77;79975;1297;3011446;-70
2023/10/24 08:44:26;;;;;;;7.30;4.10;;;;;;;13.74;69.00;99359.39;78685;1298;3026748;-70
2023/10/24 08:46:53;;;;;;;8.60;4.00;;;;;;;13.78;68.69;99359.42;79682;1297;3012969;-69
2023/10/24 08:49:19;;;;;;;6.90;4.70;;;;;;;13.86;68.79;99363.95;79535;1294;3011804;-68
2023/10/24 08:51:47;;;;;;;7.90;4.00;;;;;;;13.83;68.77;99365.89;78489;1294;3055030;-69
2023/10/24 08:54:14;;;;;;;8.50;4.70;;;;;;;13.55;69.55;99362.56;79646;1295;3012877;-68
2023/10/24 08:56:41;;;;;;;5.20;3.90;;;;;;;13.53;69.52;99355.86;79588;1295;3011600;-67
2023/10/24 08:59:09;;;;;;;7.60;4.30;;;;;;;13.50;69.66;99364.01;78794;1297;3027612;-69
2023/10/24 09:01:36;;;;;;;6.90;4.30;;;;;;;13.40;70.03;99355.77;79716;1297;3011656;-69
2023/10/24 09:04:03;;;;;;;10.10;4.30;;;;;;;13.48;70.06;99353.59;79629;1294;3011531;-70
2023/10/24 09:06:34;;;;;;;10.50;4.70;;;;;;;13.49;70.04;99351.94;78255;1295;3056666;-68
2023/10/24 09:09:01;;;;;;;7.30;4.40;;;;;;;13.62;70.08;99347.58;79667;1295;3013080;-70
2023/10/24 09:11:58;;;;;;;8.70;4.60;;;;;;;13.74;69.46;99345.44;79550;1294;3012752;-71
2023/10/24 09:14:30;;;;;;;7.10;4.50;;;;;;;13.82;68.81;99344.35;78941;1297;3050530;-71
2023/10/24 09:17:01;;;;;;;10.90;5.10;;;;;;;13.79;69.05;99340.83;79610;1297;3011439;-67
2023/10/24 09:19:29;;;;;;;7.60;4.70;;;;;;;13.75;69.20;99344.34;78406;1297;3053630;-70
2023/10/24 09:21:59;;;;;;;14.10;4.60;;;;;;;13.59;69.03;99344.27;81062;1293;3019016;-72
2023/10/24 09:24:27;;;;;;;9.20;4.80;;;;;;;13.55;69.27;99346.52;78668;1296;3057936;-73
2023/10/24 09:26:56;;;;;;;8.60;4.90;;;;;;;13.54;69.19;99342.74;79647;1295;3012955;-73
2023/10/24 09:29:24;;;;;;;11.20;5.00;;;;;;;13.43;69.44;99342.10;79531;1295;3011851;-70
2023/10/24 09:31:54;;;;;;;11.00;4.90;;;;;;;13.59;68.85;99338.98;78453;1294;3052814;-72
2023/10/24 09:34:21;;;;;;;9.00;4.90;;;;;;;13.73;68.95;99335.11;79770;1297;3011799;-72
2023/10/24 09:36:48;;;;;;;9.80;5.50;;;;;;;13.89;68.61;99335.67;79540;1294;3011781;-70
2023/10/24 09:39:16;;;;;;;11.60;5.10;;;;;;;13.92;68.03;99339.91;78406;1295;3054464;-73
2023/10/24 09:41:45;;;;;;;11.50;5.50;;;;;;;13.99;68.01;99339.55;79521;1297;3013375;-70
2023/10/24 09:44:11;;;;;;;7.00;4.80;;;;;;;14.05;66.84;99338.51;79583;1294;3011611;-72
2023/10/24 09:46:39;;;;;;;11.50;5.40;;;;;;;14.16;66.39;99335.58;78345;1297;3051167;-73
2023/10/24 09:49:06;;;;;;;6.50;4.30;;;;;;;14.11;65.79;99331.73;79587;1300;3013094;-69
2023/10/24 09:51:35;;;;;;;7.10;4.20;;;;;;;14.14;65.85;99331.66;79691;1295;3011869;-73
2023/10/24 09:54:06;;;;;;;10.40;4.60;;;;;;;14.06;66.21;99329.12;78730;1295;3055897;-80
2023/10/24 09:56:32;;;;;;;8.60;4.70;;;;;;;14.14;66.02;99330.06;79534;1297;3011852;-75
2023/10/24 09:59:01;;;;;;;10.90;4.40;;;;;;;13.98;65.94;99342.08;79015;1295;3011656;-74
2023/10/24 10:01:28;;;;;;;8.30;3.30;;;;;;;13.84;66.46;99335.95;79693;1296;3013512;-78
2023/10/24 10:04:00;;;;;;;6.30;3.60;;;;;;;13.82;66.76;99332.55;79546;1300;3011855;-78
2023/10/24 10:06:28;;;;;;;8.50;3.30;;;;;;;13.85;66.59;99331.09;78452;1297;3068417;-76
2023/10/24 10:08:55;;;;;;;8.70;3.70;;;;;;;13.72;67.29;99338.25;79781;1294;3018575;-75
2023/10/24 10:11:22;;;;;;;9.10;4.80;;;;;;;13.56;67.92;99338.86;79934;1293;3011889;-76
2023/10/24 10:13:54;;;;;;;15.60;4.60;;;;;;;13.57;68.23;99332.10;78421;1300;3054090;-75
2023/10/24 10:16:29;;;;;;;11.10;4.80;;;;;;;13.70;68.06;99327.96;79641;1294;3012138;-76
2023/10/24 10:19:15;;;;;;;11.40;5.00;;;;;;;13.83;67.68;99323.48;78503;1297;3052889;-79
2023/10/24 10:22:01;;;;;;;9.70;4.60;;;;;;;13.76;68.32;99319.95;78568;1297;3052374;-81
2023/10/24 10:24:41;;;;;;;11.60;5.20;;;;;;;13.71;68.73;99318.36;78647;1295;3069598;-76
2023/10/24 10:27:28;;;;;;;9.30;4.90;;;;;;;13.64;69.10;99321.39;78567;1294;3053382;-75
2023/10/24 10:30:27;;;;;;;9.00;4.30;;;;;;;13.77;68.88;99318.69;78323;1297;3055743;-75
2023/10/24 10:33:05;;;;;;;9.20;4.50;;;;;;;13.94;68.44;99315.63;78545;1297;3048635;-77
2023/10/24 10:36:06;;;;;;;13.30;4.70;;;;;;;13.89;68.11;99319.50;78747;1294;3053591;-74
2023/10/24 10:38:47;;;;;;;7.40;3.40;;;;;;;13.99;67.72;99316.27;78482;1300;3050654;-75
2023/10/24 10:41:25;;;;;;;9.30;3.60;;;;;;;13.93;67.22;99323.22;78581;1297;3053530;-77
2023/10/24 10:43:54;;;;;;;11.40;4.30;;;;;;;13.89;67.49;99319.88;78593;1297;3053248;-75
2023/10/24 10:46:23;;;;;;;5.70;3.70;;;;;;;13.86;67.37;99320.59;79608;1294;3013034;-76
2023/10/24 10:49:03;;;;;;;6.50;3.60;;;;;;;13.81;67.43;99321.89;79171;1297;3011614;-75
2023/10/24 10:51:38;;;;;;;5.80;3.20;;;;;;;13.80;67.43;99313.53;78532;1298;3056714;-73
2023/10/24 10:54:21;;;;;;;6.90;3.00;;;;;;;13.80;66.66;99317.52;79178;1294;3011390;-68
2023/10/24 10:56:49;;;;;;;;;;;;;;;13.76;66.50;99310.06;78561;1297;3048686;-71
2023/10/24 10:59:37;;;;;;;4.40;3.20;;;;;;;13.73;66.75;99311.36;79696;1297;3019320;-74
2023/10/24 11:02:36;;;;;;;4.60;3.20;;;;;;;13.74;67.26;99321.38;78448;1297;3054523;-73
2023/10/24 11:05:40;;;;;;;11.90;3.40;;;;;;;13.74;67.28;99327.15;78588;1295;3051467;-73
2023/10/24 11:08:08;;;;;;;;;;;;;;;13.78;67.11;99315.98;78482;1295;3071002;-73
2023/10/24 12:34:25;;;;;;;3.90;2.40;;;;;;;14.10;60.92;99283.17;80394;1299;3013101;-67
2023/10/24 12:36:53;;;;;;;4.20;2.40;;;;;;;14.07;60.79;99287.50;79754;1301;3013486;-70
2023/10/24 12:39:21;;;;;;;5.90;1.80;;;;;;;14.03;59.74;99281.98;79407;1302;3011650;-71
2023/10/24 12:41:49;;;;;;;2.70;1.80;;;;;;;14.01;58.57;99286.92;78268;1305;3052756;-69